George Bush Intercontinental Houston Airport
KIAH : rendu visible

Aérodrome :











RETROUVEZ-NOUS SUR...

 
LOGIN :

S'inscrire | Disclaimer

   EN    FR    IT 

 









Légende :    VFR   VFR Marginal   IFR   IFR Intensif   IFR Très Intensif
Visi : 
Plafond : 
>= 8 km
>= 3000ft
5 à 8 km
1000 à 3000 ft
1500m à 5 km
500 à 1000 ft
800 à 1500m
200 à 500 ft
< 800m
< 200 ft
Symboles :   Orages  Brouillard  Fortes neiges  Fortes précipitations  Vent > 20 kt






- Altitude de l'aérodrome : 97 ft
- Code IATA : IAH


KIAH - George Bush Intercontinental Houston

DERNIER METAR :
  • 100753Z 35011G20KT 8SM FEW009 BKN022 BKN060 17/12 A2993 RMK AO2 SLP134 T01720117

METARs EXPIRÉS :
  • 100713Z 35011G16KT 7SM FEW007 SCT030 BKN080 21/19 A2990 RMK AO2 T02060194
  • 100653Z 16003KT 7SM SCT047 BKN080 21/19 A2989 RMK AO2 SLP123 T02110194
  • 100553Z 00000KT 9SM FEW035 BKN060 OVC250 22/20 A2989 RMK AO2 SLP122 60000 T02170200 10256 20211 402890189 51008

TAF KIAH
Valide du 10 à 06h jusqu'au 11 à 12h UTC


100541Z 1006/1112 VRB04KT P6SM VCSH FEW019 SCT040 BKN070
FM100645 35009G15KT P6SM VCSH SCT015 BKN025 OVC040
FM100800 36012G22KT 5SM SHRA OVC019
FM101200 36018G28KT 4SM -SHRA BR OVC012
FM110100 01014G19KT P6SM VCSH OVC017
FM110300 01010G16KT P6SM SCT020 OVC050



MET'MAP, la Météo Aéronautique d'un coup d'oeil ! - Copyright ORBIFLY Décembre 2007 - Disclaimer

ORBIFLY MET'MAP TEAM :

Programmation & Développement : Alexandra Zaïnal
Sur une idée originale de : Baudouin d'Aumeries
Assistance à la programmation : Marc-Olivier Méhu
Soutien technique & logistique : Manuel Goepfert

Contact : metmap@orbifly.com




SOURCES & CREDITS :

   NOAA       Earth
Advisory